createdAt,value
2022-11-06T00:01:16.670Z,100486.37
2022-11-06T00:03:47.609Z,100483.83
2022-11-06T00:06:35.810Z,100484.41
2022-11-06T00:09:07.730Z,100481.46
2022-11-06T00:11:36.858Z,100487.80
2022-11-06T00:14:04.857Z,100491.48
2022-11-06T00:16:33.784Z,100496.09
2022-11-06T00:19:02.825Z,100501.31
2022-11-06T00:21:34.441Z,100503.69
2022-11-06T00:24:04.167Z,100504.28
2022-11-06T00:26:34.056Z,100507.11
2022-11-06T00:29:05.015Z,100506.55
2022-11-06T00:31:36.684Z,100512.56
2022-11-06T00:34:07.308Z,100514.89
2022-11-06T00:36:36.385Z,100514.49
2022-11-06T00:39:06.860Z,100516.91
2022-11-06T00:41:35.481Z,100511.00
2022-11-06T00:44:03.326Z,100510.62
2022-11-06T00:46:31.048Z,100511.17
2022-11-06T00:48:59.020Z,100512.91
2022-11-06T00:51:35.413Z,100514.20
2022-11-06T00:54:07.793Z,100513.37
2022-11-06T00:56:36.120Z,100509.98
2022-11-06T00:59:07.295Z,100510.42
2022-11-06T01:01:39.719Z,100510.88
2022-11-06T01:04:12.280Z,100511.83
2022-11-06T01:06:43.432Z,100515.60
2022-11-06T01:09:16.875Z,100516.95
2022-11-06T01:14:43.862Z,100515.39
2022-11-06T01:17:11.797Z,100517.13
2022-11-06T01:19:39.928Z,100518.46
2022-11-06T01:22:09.135Z,100516.16
2022-11-06T01:24:37.085Z,100514.66
2022-11-06T01:27:25.335Z,100514.51
2022-11-06T01:29:56.543Z,100512.91
2022-11-06T01:32:25.378Z,100514.74
2022-11-06T01:34:53.079Z,100513.67
2022-11-06T01:37:25.287Z,100511.64
2022-11-06T01:39:52.771Z,100511.30
2022-11-06T01:42:21.680Z,100512.98
2022-11-06T01:45:32.498Z,100512.32
2022-11-06T01:48:01.197Z,100515.08
2022-11-06T01:50:32.757Z,100514.63
2022-11-06T01:53:02.155Z,100516.30
2022-11-06T01:55:42.222Z,100512.91
2022-11-06T01:58:15.053Z,100518.18
2022-11-06T02:00:45.129Z,100517.23
2022-11-06T02:03:13.338Z,100517.90
2022-11-06T02:05:42.531Z,100522.23
2022-11-06T02:08:13.278Z,100519.80
2022-11-06T02:10:43.074Z,100520.50
2022-11-06T02:13:21.564Z,100519.70
2022-11-06T02:15:50.741Z,100517.20
2022-11-06T02:18:40.567Z,100514.36
2022-11-06T02:21:18.601Z,100514.84
2022-11-06T02:24:18.275Z,100511.70
2022-11-06T02:27:11.983Z,100512.77
2022-11-06T02:29:47.233Z,100516.16
2022-11-06T02:32:20.111Z,100521.22
2022-11-06T02:34:50.998Z,100525.42
2022-11-06T02:37:24.763Z,100526.46
2022-11-06T02:39:54.990Z,100531.09
2022-11-06T02:42:26.435Z,100530.67
2022-11-06T02:44:57.639Z,100531.91
2022-11-06T02:47:29.011Z,100529.00
2022-11-06T02:50:04.495Z,100532.21
2022-11-06T02:52:38.749Z,100530.98
2022-11-06T02:55:23.543Z,100532.41
2022-11-06T02:57:57.109Z,100531.27
2022-11-06T03:00:27.476Z,100532.05
2022-11-06T03:03:15.004Z,100538.83
2022-11-06T03:05:48.343Z,100539.63
2022-11-06T03:08:40.535Z,100541.43
2022-11-06T03:11:14.423Z,100540.02
2022-11-06T03:14:16.764Z,100541.61
2022-11-06T03:17:11.253Z,100537.34
2022-11-06T03:19:55.714Z,100539.05
2022-11-06T03:22:40.195Z,100538.20
2022-11-06T03:25:13.845Z,100535.97
2022-11-06T03:27:53.685Z,100539.16
2022-11-06T03:30:22.352Z,100538.39
2022-11-06T03:33:06.530Z,100542.80
2022-11-06T03:35:57.905Z,100546.43
2022-11-06T03:38:31.359Z,100544.21
2022-11-06T03:41:15.452Z,100538.27
2022-11-06T03:43:48.346Z,100539.10
2022-11-06T03:46:24.694Z,100546.24
2022-11-06T03:49:03.573Z,100551.55
2022-11-06T03:51:37.007Z,100557.31
2022-11-06T03:54:22.243Z,100555.75
2022-11-06T03:56:59.723Z,100556.95
2022-11-06T03:59:35.618Z,100558.11
2022-11-06T04:02:04.084Z,100556.60
2022-11-06T04:04:58.611Z,100556.17
2022-11-06T04:07:36.301Z,100554.55
2022-11-06T04:14:39.469Z,100546.02
2022-11-06T04:17:10.876Z,100545.29
2022-11-06T04:19:50.241Z,100542.48
2022-11-06T04:22:23.422Z,100541.61
2022-11-06T04:25:31.409Z,100547.06
2022-11-06T04:28:20.240Z,100549.05
2022-11-06T04:31:11.929Z,100550.60
2022-11-06T04:34:01.384Z,100552.19
2022-11-06T04:36:28.654Z,100547.01
2022-11-06T04:39:10.662Z,100552.75
2022-11-06T04:41:48.963Z,100552.24
2022-11-06T04:44:32.580Z,100548.77
2022-11-06T04:47:11.802Z,100550.73
2022-11-06T04:49:42.446Z,100548.63
2022-11-06T04:52:15.521Z,100549.83
2022-11-06T04:54:45.573Z,100545.34
2022-11-06T04:57:14.135Z,100547.70
2022-11-06T04:59:44.932Z,100547.08
2022-11-06T05:02:12.546Z,100549.16
2022-11-06T05:04:40.195Z,100551.45
2022-11-06T05:07:08.824Z,100551.38
2022-11-06T05:09:38.004Z,100545.92
2022-11-06T05:12:05.742Z,100543.04
2022-11-06T05:14:39.212Z,100548.17
2022-11-06T05:17:06.928Z,100545.97
2022-11-06T05:19:35.304Z,100547.52
2022-11-06T05:22:21.875Z,100550.27
2022-11-06T05:24:51.782Z,100554.77
2022-11-06T05:27:20.608Z,100556.61
2022-11-06T05:29:48.207Z,100558.89
2022-11-06T05:32:17.068Z,100558.58
2022-11-06T05:34:46.949Z,100557.24
2022-11-06T05:37:16.237Z,100562.25
2022-11-06T05:39:43.546Z,100560.61
2022-11-06T05:42:13.131Z,100560.93
2022-11-06T05:44:43.839Z,100559.35
2022-11-06T05:47:11.937Z,100555.19
2022-11-06T05:49:41.303Z,100557.29
2022-11-06T05:52:09.066Z,100561.13
2022-11-06T05:54:37.175Z,100567.84
2022-11-06T05:57:04.527Z,100568.38
2022-11-06T05:59:32.012Z,100576.89
2022-11-06T06:02:01.037Z,100575.63
2022-11-06T06:04:29.844Z,100576.15
2022-11-06T06:06:57.365Z,100570.80
2022-11-06T06:09:25.082Z,100572.95
2022-11-06T06:11:54.120Z,100571.33
2022-11-06T06:14:22.458Z,100568.27
2022-11-06T06:16:50.865Z,100573.35
2022-11-06T06:19:19.096Z,100574.34
2022-11-06T06:21:46.638Z,100580.72
2022-11-06T06:24:16.852Z,100586.90
2022-11-06T06:26:46.050Z,100589.40
2022-11-06T06:29:13.661Z,100588.73
2022-11-06T06:31:41.478Z,100588.15
2022-11-06T06:34:08.931Z,100596.83
2022-11-06T06:36:40.462Z,100596.44
2022-11-06T06:39:08.768Z,100595.27
2022-11-06T06:41:37.490Z,100595.26
2022-11-06T06:47:47.902Z,100590.89
2022-11-06T06:50:26.442Z,100587.46
2022-11-06T06:53:01.528Z,100589.52
2022-11-06T06:55:29.554Z,100596.66
2022-11-06T06:58:01.892Z,100591.15
2022-11-06T07:00:31.594Z,100594.73
2022-11-06T07:03:01.342Z,100594.98
2022-11-06T07:05:29.120Z,100596.56
2022-11-06T07:07:57.048Z,100590.85
2022-11-06T07:10:28.834Z,100594.95
2022-11-06T07:13:01.244Z,100592.52
2022-11-06T07:15:31.319Z,100593.14
2022-11-06T07:18:10.459Z,100591.13
2022-11-06T07:20:39.541Z,100592.02
2022-11-06T07:23:08.539Z,100597.45
2022-11-06T07:32:43.221Z,100597.26
2022-11-06T07:35:16.701Z,100600.20
2022-11-06T07:38:09.547Z,100602.80
2022-11-06T07:44:21.494Z,100600.59
2022-11-06T07:46:56.897Z,100601.15
2022-11-06T07:52:46.548Z,100598.39
2022-11-06T07:55:15.130Z,100599.58
2022-11-06T07:57:45.276Z,100602.41
2022-11-06T08:00:16.570Z,100595.08
2022-11-06T08:02:54.986Z,100593.85
2022-11-06T08:05:27.841Z,100591.44
2022-11-06T08:07:57.720Z,100594.00
2022-11-06T08:38:21.659Z,100607.33
2022-11-06T08:40:53.747Z,100608.92
2022-11-06T08:43:27.170Z,100603.81
2022-11-06T08:45:56.161Z,100603.60
2022-11-06T08:48:24.295Z,100604.73
2022-11-06T08:51:17.525Z,100605.30
2022-11-06T08:53:49.111Z,100604.98
2022-11-06T08:56:22.032Z,100605.20
2022-11-06T08:58:55.383Z,100601.30
2022-11-06T09:15:28.788Z,100597.32
2022-11-06T09:25:04.105Z,100593.55
2022-11-06T09:27:44.217Z,100594.48
2022-11-06T10:34:36.700Z,100582.55
2022-11-06T10:38:00.560Z,100586.10
2022-11-06T14:50:30.203Z,100454.27
2022-11-06T14:53:07.985Z,100462.30
2022-11-06T14:55:57.615Z,100466.02
2022-11-06T14:58:36.075Z,100468.89
2022-11-06T15:01:11.912Z,100471.15
2022-11-06T15:08:05.312Z,100474.52
2022-11-06T15:10:42.887Z,100470.64
2022-11-06T15:13:25.109Z,100475.67
2022-11-06T15:51:30.120Z,100482.80
2022-11-06T15:53:59.289Z,100480.27
2022-11-06T15:56:34.729Z,100477.07
2022-11-06T15:59:22.585Z,100477.14
2022-11-06T16:01:54.214Z,100471.73
2022-11-06T16:11:18.159Z,100464.59
2022-11-06T16:13:49.057Z,100461.98
2022-11-06T16:16:53.868Z,100463.44
2022-11-06T16:23:22.272Z,100471.78
2022-11-06T16:26:35.878Z,100475.48
2022-11-06T16:29:32.119Z,100482.54
2022-11-06T16:32:27.289Z,100484.42
2022-11-06T16:34:56.323Z,100477.98
2022-11-06T16:37:29.298Z,100474.34
2022-11-06T16:40:46.060Z,100475.99
2022-11-06T16:43:18.194Z,100478.70
2022-11-06T16:46:16.878Z,100480.23
2022-11-06T17:16:46.994Z,100452.84
2022-11-06T17:19:17.384Z,100454.84
2022-11-06T17:21:48.524Z,100452.79
2022-11-06T17:24:37.687Z,100449.61
2022-11-06T17:27:11.328Z,100449.69
2022-11-06T17:29:40.912Z,100446.88
2022-11-06T17:32:24.772Z,100447.63
2022-11-06T17:35:02.057Z,100451.20
2022-11-06T17:37:31.808Z,100453.86
2022-11-06T17:40:01.975Z,100450.63
2022-11-06T17:42:37.613Z,100456.25
2022-11-06T17:45:09.351Z,100455.03
2022-11-06T17:47:41.627Z,100454.94
2022-11-06T17:50:11.116Z,100450.86
2022-11-06T17:52:40.531Z,100450.33
2022-11-06T17:55:10.350Z,100449.31
2022-11-06T17:58:12.774Z,100444.10
2022-11-06T18:00:43.174Z,100452.77
2022-11-06T18:03:19.507Z,100454.04
2022-11-06T18:05:48.988Z,100451.41
2022-11-06T18:08:25.124Z,100448.00
2022-11-06T18:11:05.847Z,100446.63
2022-11-06T18:13:35.115Z,100451.03
2022-11-06T18:16:32.679Z,100449.10
2022-11-06T18:19:02.208Z,100450.45
2022-11-06T18:21:53.696Z,100448.04
2022-11-06T18:24:33.981Z,100440.71
2022-11-06T18:27:03.887Z,100436.92
2022-11-06T18:29:38.127Z,100434.83
2022-11-06T18:32:10.009Z,100434.13
2022-11-06T18:34:45.118Z,100433.64
2022-11-06T18:37:15.573Z,100428.73
2022-11-06T18:39:47.599Z,100421.17
2022-11-06T18:42:26.369Z,100410.02
2022-11-06T18:45:14.677Z,100402.73
2022-11-06T18:47:48.356Z,100400.02
2022-11-06T18:50:28.417Z,100399.21
2022-11-06T18:53:07.538Z,100402.66
2022-11-06T18:55:58.917Z,100402.83
2022-11-06T18:58:28.272Z,100406.13
2022-11-06T19:01:06.892Z,100406.88
2022-11-06T19:03:57.520Z,100406.86
2022-11-06T19:06:51.261Z,100405.09
2022-11-06T20:08:19.950Z,100385.45
2022-11-06T20:11:12.091Z,100383.46
2022-11-06T20:13:41.278Z,100385.39
2022-11-06T20:16:14.998Z,100385.27
2022-11-06T20:19:12.886Z,100394.17
2022-11-06T20:21:42.417Z,100399.64
2022-11-06T20:25:06.812Z,100403.70
2022-11-06T20:27:38.262Z,100403.61
2022-11-06T20:43:55.949Z,100411.33
2022-11-06T20:46:29.910Z,100413.29
2022-11-06T20:49:00.389Z,100412.36
2022-11-06T20:51:30.296Z,100413.88
2022-11-06T20:54:00.157Z,100416.96
2022-11-06T20:56:30.255Z,100418.89
2022-11-06T20:58:59.162Z,100413.52
2022-11-06T21:01:30.101Z,100421.42
2022-11-06T21:04:03.561Z,100425.70
2022-11-06T21:06:35.092Z,100427.14
2022-11-06T21:09:06.402Z,100426.13
2022-11-06T21:11:38.521Z,100426.66
2022-11-06T21:17:45.035Z,100420.59
2022-11-06T21:20:15.213Z,100414.81
2022-11-06T21:23:19.436Z,100413.23
2022-11-06T21:25:48.352Z,100411.91
2022-11-06T21:28:36.633Z,100404.55
2022-11-06T21:31:30.562Z,100406.65
2022-11-06T21:34:18.067Z,100402.38
2022-11-06T21:36:47.767Z,100397.76
2022-11-06T21:39:25.021Z,100394.74
2022-11-06T21:41:54.914Z,100392.52
2022-11-06T21:44:25.227Z,100380.80
2022-11-06T21:46:56.633Z,100383.08
2022-11-06T21:49:29.165Z,100383.63
2022-11-06T21:52:22.001Z,100379.91
2022-11-06T21:55:12.604Z,100378.67
2022-11-06T22:08:00.364Z,100376.66
2022-11-06T22:10:47.991Z,100373.67
2022-11-06T22:13:23.889Z,100371.43
2022-11-06T22:16:04.177Z,100366.30
2022-11-06T22:26:04.027Z,100358.94
2022-11-06T22:42:21.479Z,100320.01
2022-11-06T22:45:10.229Z,100315.50
2022-11-06T23:25:04.305Z,100270.43
2022-11-06T23:34:40.998Z,100270.36
2022-11-06T23:37:41.497Z,100266.38
2022-11-06T23:40:18.846Z,100268.02
2022-11-06T23:42:58.735Z,100272.55
2022-11-06T23:59:18.271Z,100290.53
